createdAt,value
2017-12-29T00:00:46.787Z,4.00
2017-12-29T00:03:14.283Z,4.80
2017-12-29T00:05:41.755Z,4.17
2017-12-29T00:08:09.260Z,4.10
2017-12-29T00:10:37.506Z,4.50
2017-12-29T00:13:04.999Z,4.47
2017-12-29T00:15:32.524Z,4.40
2017-12-29T00:18:00.024Z,4.23
2017-12-29T00:20:28.643Z,4.47
2017-12-29T00:22:56.148Z,4.63
2017-12-29T00:25:24.395Z,5.00
2017-12-29T00:27:51.892Z,4.60
2017-12-29T00:30:20.147Z,4.13
2017-12-29T00:32:47.635Z,4.90
2017-12-29T00:35:16.603Z,4.60
2017-12-29T00:37:44.095Z,4.40
2017-12-29T00:40:11.595Z,4.00
2017-12-29T00:42:39.068Z,3.90
2017-12-29T00:45:07.336Z,4.57
2017-12-29T00:47:34.812Z,4.73
2017-12-29T00:50:02.303Z,4.30
2017-12-29T00:52:30.547Z,4.07
2017-12-29T00:54:58.045Z,4.53
2017-12-29T00:57:26.290Z,4.97
2017-12-29T00:59:53.784Z,4.93
2017-12-29T01:02:21.268Z,4.70
2017-12-29T01:04:48.768Z,4.00
2017-12-29T01:07:16.247Z,4.20
2017-12-29T01:09:43.741Z,4.60
2017-12-29T01:12:11.218Z,5.40
2017-12-29T01:14:38.718Z,5.13
2017-12-29T01:17:06.202Z,4.87
2017-12-29T01:19:33.710Z,4.73
2017-12-29T01:22:01.182Z,5.40
2017-12-29T01:24:28.686Z,4.93
2017-12-29T01:26:56.164Z,5.43
2017-12-29T01:29:23.658Z,5.23
2017-12-29T01:31:51.899Z,5.50
2017-12-29T01:34:19.399Z,5.90
2017-12-29T01:36:46.875Z,5.50
2017-12-29T01:39:15.144Z,6.30
2017-12-29T01:41:42.623Z,4.93
2017-12-29T01:44:10.111Z,5.50
2017-12-29T01:46:38.359Z,6.33
2017-12-29T01:49:05.859Z,5.87
2017-12-29T01:51:34.106Z,6.77
2017-12-29T01:54:01.612Z,6.07
2017-12-29T01:56:29.091Z,6.13
2017-12-29T01:58:57.359Z,5.70
2017-12-29T02:01:24.842Z,7.00
2017-12-29T02:03:53.107Z,6.43
2017-12-29T02:06:20.608Z,5.67
2017-12-29T02:08:48.870Z,5.83
2017-12-29T02:11:16.339Z,5.60
2017-12-29T02:13:43.835Z,5.80
2017-12-29T02:16:12.079Z,5.80
2017-12-29T02:18:39.558Z,5.53
2017-12-29T02:21:07.059Z,5.30
2017-12-29T02:23:35.311Z,6.07
2017-12-29T02:26:02.811Z,5.47
2017-12-29T02:28:31.063Z,5.73
2017-12-29T02:30:58.563Z,6.00
2017-12-29T02:33:26.036Z,6.80
2017-12-29T02:35:53.538Z,5.50
2017-12-29T02:38:21.015Z,6.20
2017-12-29T02:40:48.503Z,6.43
2017-12-29T02:43:15.978Z,6.00
2017-12-29T02:45:43.480Z,5.77
2017-12-29T02:48:12.326Z,6.20
2017-12-29T02:50:39.819Z,5.83
2017-12-29T02:53:07.294Z,6.00
2017-12-29T02:55:34.787Z,5.73
2017-12-29T02:58:02.258Z,6.50
2017-12-29T03:00:29.754Z,5.80
2017-12-29T03:02:57.994Z,6.27
2017-12-29T03:05:25.502Z,7.30
2017-12-29T03:07:53.742Z,6.60
2017-12-29T03:10:22.426Z,7.60
2017-12-29T03:12:49.898Z,6.20
2017-12-29T03:15:18.160Z,6.43
2017-12-29T03:17:46.187Z,6.67
2017-12-29T03:20:13.682Z,6.97
2017-12-29T03:22:41.167Z,6.83
2017-12-29T03:25:09.427Z,6.93
2017-12-29T03:27:36.906Z,7.10
2017-12-29T03:30:04.408Z,6.97
2017-12-29T03:32:31.874Z,7.10
2017-12-29T03:35:00.136Z,6.13
2017-12-29T03:37:27.610Z,6.53
2017-12-29T03:39:55.112Z,6.87
2017-12-29T03:42:22.584Z,6.97
2017-12-29T03:44:50.075Z,6.63
2017-12-29T03:47:17.575Z,6.33
2017-12-29T03:49:45.071Z,8.00
2017-12-29T03:52:13.324Z,6.83
2017-12-29T03:54:40.814Z,6.00
2017-12-29T03:57:08.287Z,5.93
2017-12-29T03:59:35.778Z,6.40
2017-12-29T04:02:04.019Z,8.03
2017-12-29T04:04:31.516Z,7.50
2017-12-29T04:06:59.758Z,6.67
2017-12-29T04:09:27.300Z,7.30
2017-12-29T04:11:54.776Z,7.40
2017-12-29T04:14:22.861Z,6.40
2017-12-29T04:16:50.336Z,6.63
2017-12-29T04:19:17.834Z,6.43
2017-12-29T04:21:45.307Z,6.73
2017-12-29T04:24:12.782Z,6.17
2017-12-29T04:26:40.283Z,7.20
2017-12-29T04:29:08.592Z,6.77
2017-12-29T04:31:36.094Z,7.23
2017-12-29T04:34:03.566Z,6.17
2017-12-29T04:36:31.063Z,6.90
2017-12-29T04:38:58.545Z,6.90
2017-12-29T04:41:26.042Z,6.80
2017-12-29T04:43:53.523Z,7.03
2017-12-29T04:46:21.015Z,6.70
2017-12-29T04:48:48.494Z,6.57
2017-12-29T04:51:15.995Z,7.27
2017-12-29T04:53:43.493Z,7.50
2017-12-29T04:56:10.986Z,7.23
2017-12-29T04:58:38.454Z,5.57
2017-12-29T05:01:05.951Z,5.47
2017-12-29T05:03:33.479Z,5.20
2017-12-29T05:06:00.946Z,5.90
2017-12-29T05:08:28.419Z,5.43
2017-12-29T05:10:55.914Z,5.23
2017-12-29T05:13:23.391Z,5.60
2017-12-29T05:15:50.874Z,4.70
2017-12-29T05:18:18.355Z,5.67
2017-12-29T05:20:45.847Z,4.87
2017-12-29T05:23:14.090Z,5.10
2017-12-29T05:25:41.579Z,4.17
2017-12-29T05:28:09.055Z,4.73
2017-12-29T05:30:36.546Z,4.97
2017-12-29T05:33:04.787Z,5.40
2017-12-29T05:35:32.293Z,5.10
2017-12-29T05:37:59.768Z,5.67
2017-12-29T05:40:29.203Z,5.23
2017-12-29T05:42:56.683Z,4.17
2017-12-29T05:45:24.187Z,4.87
2017-12-29T05:47:51.663Z,4.10
2017-12-29T05:50:19.159Z,4.90
2017-12-29T05:52:47.406Z,4.20
2017-12-29T05:55:14.900Z,4.93
2017-12-29T05:57:42.376Z,5.20
2017-12-29T06:00:09.883Z,4.80
2017-12-29T06:02:37.356Z,4.40
2017-12-29T06:05:04.827Z,5.80
2017-12-29T06:07:32.314Z,4.67
2017-12-29T06:09:59.803Z,4.37
2017-12-29T06:12:27.290Z,4.43
2017-12-29T06:14:54.822Z,4.80
2017-12-29T06:17:22.324Z,4.90
2017-12-29T06:19:49.811Z,4.17
2017-12-29T06:22:18.072Z,4.10
2017-12-29T06:24:45.546Z,5.00
2017-12-29T06:27:13.034Z,5.27
2017-12-29T06:29:40.511Z,4.70
2017-12-29T06:32:08.005Z,5.00
2017-12-29T06:34:35.483Z,5.13
2017-12-29T06:37:02.980Z,4.17
2017-12-29T06:39:30.454Z,5.40
2017-12-29T06:41:57.950Z,5.40
2017-12-29T06:44:25.427Z,4.97
2017-12-29T06:46:52.972Z,4.67
2017-12-29T06:49:20.438Z,4.43
2017-12-29T06:51:47.932Z,5.37
2017-12-29T06:54:15.419Z,4.80
2017-12-29T06:56:43.692Z,6.27
2017-12-29T06:59:11.158Z,5.13
2017-12-29T07:01:38.634Z,4.90
2017-12-29T07:04:06.128Z,5.10
2017-12-29T07:06:34.373Z,5.33
2017-12-29T07:09:01.871Z,5.33
2017-12-29T07:11:30.115Z,5.33
2017-12-29T07:13:57.606Z,5.27
2017-12-29T07:16:25.095Z,5.13
2017-12-29T07:18:53.359Z,5.10
2017-12-29T07:21:20.839Z,5.47
2017-12-29T07:23:48.330Z,5.07
2017-12-29T07:26:16.579Z,4.60
2017-12-29T07:28:44.072Z,5.20
2017-12-29T07:31:11.545Z,5.70
2017-12-29T07:33:39.041Z,5.90
2017-12-29T07:36:06.514Z,5.10
2017-12-29T07:38:34.015Z,5.37
2017-12-29T07:41:01.483Z,6.40
2017-12-29T07:43:28.997Z,6.40
2017-12-29T07:45:56.471Z,6.10
2017-12-29T07:48:24.735Z,6.97
2017-12-29T07:50:52.219Z,5.97
2017-12-29T07:53:19.735Z,5.80
2017-12-29T07:55:47.207Z,6.70
2017-12-29T07:58:14.719Z,6.77
2017-12-29T08:00:43.094Z,6.10
2017-12-29T08:03:10.571Z,5.53
2017-12-29T08:05:38.075Z,6.43
2017-12-29T08:08:05.584Z,7.27
2017-12-29T08:10:33.091Z,6.00
2017-12-29T08:13:00.575Z,6.10
2017-12-29T08:15:28.839Z,6.17
2017-12-29T08:17:56.330Z,6.23
2017-12-29T08:20:23.827Z,6.20
2017-12-29T08:22:51.306Z,6.47
2017-12-29T08:25:18.808Z,6.10
2017-12-29T08:27:46.291Z,5.83
2017-12-29T08:30:13.978Z,7.30
2017-12-29T08:32:41.463Z,6.10
2017-12-29T08:35:09.726Z,5.70
2017-12-29T08:37:37.202Z,6.60
2017-12-29T08:40:04.707Z,6.47
2017-12-29T08:42:32.199Z,4.93
2017-12-29T08:44:59.700Z,6.20
2017-12-29T08:47:27.179Z,6.20
2017-12-29T08:49:54.691Z,6.03
2017-12-29T08:52:22.171Z,5.90
2017-12-29T08:54:49.671Z,5.07
2017-12-29T08:57:17.142Z,5.70
2017-12-29T08:59:44.636Z,5.80
2017-12-29T09:02:12.143Z,6.27
2017-12-29T09:04:39.620Z,5.80
2017-12-29T09:07:07.127Z,4.13
2017-12-29T09:09:34.610Z,5.97
2017-12-29T09:12:02.797Z,5.40
2017-12-29T09:14:30.179Z,4.23
2017-12-29T09:16:58.455Z,5.20
2017-12-29T09:19:25.934Z,5.23
2017-12-29T09:21:54.208Z,4.47
2017-12-29T09:24:21.682Z,4.47
2017-12-29T09:26:49.184Z,5.50
2017-12-29T09:29:16.664Z,4.93
2017-12-29T09:31:44.171Z,4.37
2017-12-29T09:34:11.650Z,4.27
2017-12-29T09:36:39.152Z,4.20
2017-12-29T09:39:07.403Z,3.87
2017-12-29T09:41:35.475Z,3.80
2017-12-29T09:44:02.955Z,3.87
2017-12-29T09:46:30.450Z,4.13
2017-12-29T09:48:58.770Z,3.90
2017-12-29T09:51:26.302Z,4.40
2017-12-29T09:53:54.968Z,4.50
2017-12-29T09:56:22.483Z,5.00
2017-12-29T09:58:50.764Z,4.60
2017-12-29T10:01:19.028Z,5.60
2017-12-29T10:03:46.564Z,4.83
2017-12-29T10:06:14.052Z,4.40
2017-12-29T10:08:41.543Z,5.20
2017-12-29T10:11:09.045Z,4.90
2017-12-29T10:13:36.528Z,4.67
2017-12-29T10:16:03.999Z,5.17
2017-12-29T10:18:31.496Z,4.90
2017-12-29T10:20:58.972Z,4.93
2017-12-29T10:23:26.474Z,4.50
2017-12-29T10:25:53.967Z,4.63
2017-12-29T10:28:21.471Z,4.73
2017-12-29T10:30:48.951Z,4.80
2017-12-29T10:33:16.450Z,5.13
2017-12-29T10:35:43.923Z,5.27
2017-12-29T10:38:11.411Z,5.57
2017-12-29T10:40:38.910Z,4.60
2017-12-29T10:43:06.415Z,5.30
2017-12-29T10:45:33.897Z,4.70
2017-12-29T10:48:01.382Z,5.00
2017-12-29T10:50:28.854Z,3.83
2017-12-29T10:52:56.355Z,3.90
2017-12-29T10:55:23.831Z,4.87
2017-12-29T10:57:51.305Z,4.80
2017-12-29T11:00:19.563Z,4.57
2017-12-29T11:02:47.815Z,4.10
2017-12-29T11:05:15.306Z,4.50
2017-12-29T11:07:43.547Z,4.63
2017-12-29T11:10:11.807Z,4.67
2017-12-29T11:12:39.283Z,5.20
2017-12-29T11:15:06.829Z,3.70
2017-12-29T11:17:35.109Z,3.70
2017-12-29T11:20:03.389Z,4.17
2017-12-29T11:22:30.875Z,4.10
2017-12-29T11:24:59.148Z,3.53
2017-12-29T11:27:26.632Z,3.83
2017-12-29T11:29:54.903Z,3.73
2017-12-29T11:32:22.388Z,3.30
2017-12-29T11:34:50.658Z,4.03
2017-12-29T11:37:18.133Z,5.80
2017-12-29T11:39:45.639Z,4.30
2017-12-29T11:42:13.111Z,4.17
2017-12-29T11:44:40.609Z,3.23
2017-12-29T11:47:08.083Z,2.90
2017-12-29T11:49:35.583Z,4.30
2017-12-29T11:52:03.072Z,4.00
2017-12-29T11:54:31.343Z,3.70
2017-12-29T11:56:58.820Z,3.17
2017-12-29T11:59:26.307Z,3.50
2017-12-29T12:01:54.669Z,3.30
2017-12-29T12:04:23.754Z,4.07
2017-12-29T12:06:51.244Z,3.50
2017-12-29T12:09:18.715Z,3.17
2017-12-29T12:11:46.230Z,3.67
2017-12-29T12:14:13.704Z,3.07
2017-12-29T12:16:41.199Z,3.47
2017-12-29T12:19:08.678Z,3.23
2017-12-29T12:21:36.175Z,2.77
2017-12-29T12:24:03.650Z,3.63
2017-12-29T12:26:31.145Z,2.73
2017-12-29T12:28:58.634Z,2.80
2017-12-29T12:31:26.123Z,2.87
2017-12-29T12:33:53.615Z,8.30
2017-12-29T12:36:21.115Z,3.03
2017-12-29T12:38:49.354Z,2.53
2017-12-29T12:41:16.860Z,2.83
2017-12-29T12:43:45.095Z,2.97
2017-12-29T12:46:12.603Z,3.10
2017-12-29T12:48:40.079Z,2.93
2017-12-29T12:51:07.570Z,4.50
2017-12-29T12:53:35.819Z,3.27
2017-12-29T12:56:03.315Z,3.33
2017-12-29T12:58:31.551Z,3.67
2017-12-29T13:00:59.022Z,3.60
2017-12-29T13:03:26.524Z,3.37
2017-12-29T13:05:53.993Z,3.77
2017-12-29T13:08:21.487Z,3.53
2017-12-29T13:10:49.727Z,3.60
2017-12-29T13:13:17.219Z,3.70
2017-12-29T13:15:44.719Z,3.13
2017-12-29T13:18:12.971Z,4.17
2017-12-29T13:20:40.446Z,3.00
2017-12-29T13:23:07.939Z,3.40
2017-12-29T13:25:36.183Z,2.80
2017-12-29T13:28:03.679Z,3.10
2017-12-29T13:30:31.162Z,7.33
2017-12-29T13:32:58.664Z,2.87
2017-12-29T13:35:26.136Z,4.00
2017-12-29T13:37:53.634Z,2.90
2017-12-29T13:40:21.153Z,3.53
2017-12-29T13:42:48.639Z,3.57
2017-12-29T13:45:16.131Z,4.10
2017-12-29T13:47:43.627Z,3.97
2017-12-29T13:50:11.115Z,10.13
2017-12-29T13:52:38.623Z,26.77
2017-12-29T13:55:06.153Z,22.43
2017-12-29T13:57:33.638Z,7.80
2017-12-29T14:00:01.883Z,3.60
2017-12-29T14:02:29.388Z,2.87
2017-12-29T14:04:56.891Z,3.43
2017-12-29T14:07:24.366Z,2.70
2017-12-29T14:09:51.871Z,2.67
2017-12-29T14:12:19.351Z,3.83
2017-12-29T14:14:46.867Z,3.47
2017-12-29T14:17:14.356Z,3.50
2017-12-29T14:19:41.851Z,3.70
2017-12-29T14:22:09.325Z,3.40
2017-12-29T14:24:36.818Z,3.90
2017-12-29T14:27:05.063Z,3.13
2017-12-29T14:29:32.556Z,3.20
2017-12-29T14:32:00.031Z,3.27
2017-12-29T14:34:27.533Z,2.90
2017-12-29T14:36:55.011Z,5.10
2017-12-29T14:39:22.510Z,2.67
2017-12-29T14:41:49.986Z,3.17
2017-12-29T14:44:17.482Z,2.93
2017-12-29T14:46:44.959Z,4.93
2017-12-29T14:49:12.452Z,4.03
2017-12-29T14:51:39.930Z,3.30
2017-12-29T14:54:07.443Z,4.07
2017-12-29T14:56:34.923Z,3.43
2017-12-29T14:59:02.437Z,4.40
2017-12-29T15:01:29.956Z,4.80
2017-12-29T15:03:57.442Z,3.73
2017-12-29T15:06:24.944Z,3.57
2017-12-29T15:08:52.422Z,4.93
2017-12-29T15:11:19.927Z,4.23
2017-12-29T15:13:47.408Z,4.60
2017-12-29T15:16:14.898Z,3.37
2017-12-29T15:18:42.379Z,9.97
2017-12-29T15:21:10.643Z,3.53
2017-12-29T15:23:38.118Z,5.00
2017-12-29T15:26:05.621Z,8.90
2017-12-29T15:28:33.107Z,4.27
2017-12-29T15:31:00.617Z,4.00
2017-12-29T15:33:28.095Z,12.17
2017-12-29T15:35:55.619Z,4.10
2017-12-29T15:38:23.101Z,2.30
2017-12-29T15:40:56.191Z,3.20
2017-12-29T15:43:23.679Z,4.50
2017-12-29T15:45:51.170Z,1.80
2017-12-29T15:48:18.642Z,3.10
2017-12-29T15:50:47.938Z,1.83
2017-12-29T15:53:15.414Z,2.37
2017-12-29T15:55:42.920Z,1.80
2017-12-29T15:58:11.158Z,1.80
2017-12-29T16:00:41.059Z,1.30
2017-12-29T16:03:08.535Z,2.27
2017-12-29T16:05:37.017Z,2.00
2017-12-29T16:08:04.514Z,2.20
2017-12-29T16:10:31.998Z,2.37
2017-12-29T16:12:59.482Z,2.20
2017-12-29T16:15:26.955Z,2.30
2017-12-29T16:17:54.451Z,2.33
2017-12-29T16:20:22.694Z,3.57
2017-12-29T16:22:50.197Z,9.70
2017-12-29T16:25:17.698Z,5.50
2017-12-29T16:27:45.199Z,6.67
2017-12-29T16:30:12.679Z,2.97
2017-12-29T16:32:40.168Z,3.23
2017-12-29T16:35:07.643Z,2.93
2017-12-29T16:37:35.143Z,2.43
2017-12-29T16:40:02.619Z,2.57
2017-12-29T16:42:30.117Z,2.40
2017-12-29T16:44:57.594Z,1.73
2017-12-29T16:47:25.099Z,2.10
2017-12-29T16:49:53.347Z,3.20
2017-12-29T16:52:20.852Z,9.60
2017-12-29T16:54:48.351Z,5.27
2017-12-29T16:57:15.868Z,4.60
2017-12-29T16:59:43.360Z,3.60
2017-12-29T17:02:10.876Z,4.70
2017-12-29T17:04:38.369Z,7.73
2017-12-29T17:07:05.903Z,12.60
2017-12-29T17:09:33.403Z,5.87
2017-12-29T17:12:00.895Z,3.83
2017-12-29T17:14:28.425Z,4.50
2017-12-29T17:16:56.684Z,4.40
2017-12-29T17:19:24.228Z,14.43
2017-12-29T17:21:51.925Z,5.47
2017-12-29T17:24:20.424Z,6.00
2017-12-29T17:26:47.924Z,3.97
2017-12-29T17:29:15.391Z,4.97
2017-12-29T17:31:42.912Z,6.60
2017-12-29T17:34:11.183Z,4.00
2017-12-29T17:36:38.692Z,5.80
2017-12-29T17:39:06.928Z,5.63
2017-12-29T17:41:34.424Z,4.20
2017-12-29T17:44:01.919Z,4.23
2017-12-29T17:46:29.439Z,3.43
2017-12-29T17:48:56.934Z,3.60
2017-12-29T17:51:24.974Z,2.90
2017-12-29T17:53:52.491Z,3.60
2017-12-29T17:56:20.745Z,3.37
2017-12-29T17:58:48.238Z,3.03
2017-12-29T18:01:15.717Z,4.40
2017-12-29T18:03:43.212Z,3.90
2017-12-29T18:06:11.455Z,3.00
2017-12-29T18:08:38.956Z,3.67
2017-12-29T18:11:07.217Z,2.60
2017-12-29T18:13:34.731Z,3.47
2017-12-29T18:16:02.967Z,2.30
2017-12-29T18:18:30.463Z,2.77
2017-12-29T18:20:57.948Z,2.20
2017-12-29T18:23:26.227Z,2.30
2017-12-29T18:25:54.478Z,2.07
2017-12-29T18:28:21.979Z,2.57
2017-12-29T18:30:49.463Z,2.20
2017-12-29T18:33:17.732Z,2.20
2017-12-29T18:35:45.221Z,1.93
2017-12-29T18:38:13.489Z,2.60
2017-12-29T18:40:40.972Z,3.30
2017-12-29T18:43:09.243Z,4.60
2017-12-29T18:45:36.718Z,3.20
2017-12-29T18:48:04.216Z,2.20
2017-12-29T18:50:32.455Z,2.67
2017-12-29T18:52:59.967Z,2.67
2017-12-29T18:55:28.226Z,2.90
2017-12-29T18:57:55.742Z,2.20
2017-12-29T19:00:23.214Z,3.13
2017-12-29T19:02:50.711Z,3.10
2017-12-29T19:05:18.187Z,4.90
2017-12-29T19:07:45.684Z,2.50
2017-12-29T19:10:13.170Z,3.73
2017-12-29T19:12:41.438Z,3.27
2017-12-29T19:15:08.911Z,2.73
2017-12-29T19:17:36.383Z,2.80
2017-12-29T19:20:03.876Z,4.70
2017-12-29T19:22:32.147Z,2.87
2017-12-29T19:24:59.649Z,3.13
2017-12-29T19:27:27.123Z,2.73
2017-12-29T19:29:54.627Z,3.27
2017-12-29T19:32:22.110Z,3.77
2017-12-29T19:34:49.611Z,4.30
2017-12-29T19:37:17.851Z,3.70
2017-12-29T19:39:45.347Z,3.30
2017-12-29T19:42:12.826Z,3.40
2017-12-29T19:44:41.084Z,4.60
2017-12-29T19:47:08.555Z,4.60
2017-12-29T19:49:36.047Z,4.17
2017-12-29T19:52:03.526Z,4.20
2017-12-29T19:54:31.016Z,4.00
2017-12-29T19:56:59.258Z,4.27
2017-12-29T19:59:26.765Z,4.47
2017-12-29T20:01:55.053Z,4.63
2017-12-29T20:04:23.324Z,5.60
2017-12-29T20:06:50.802Z,4.53
2017-12-29T20:09:19.075Z,4.97
2017-12-29T20:11:46.550Z,5.10
2017-12-29T20:14:14.814Z,7.20
2017-12-29T20:16:42.289Z,5.73
2017-12-29T20:19:09.779Z,6.07
2017-12-29T20:21:38.051Z,5.43
2017-12-29T20:24:05.600Z,6.07
2017-12-29T20:26:33.095Z,6.27
2017-12-29T20:29:00.576Z,5.20
2017-12-29T20:31:28.791Z,5.20
2017-12-29T20:33:56.268Z,5.43
2017-12-29T20:36:23.984Z,6.57
2017-12-29T20:38:51.504Z,5.10
2017-12-29T20:41:18.972Z,6.30
2017-12-29T20:43:46.459Z,6.27
2017-12-29T20:46:13.960Z,6.60
2017-12-29T20:48:41.439Z,6.10
2017-12-29T20:51:08.935Z,5.83
2017-12-29T20:53:37.189Z,7.20
2017-12-29T20:56:04.682Z,6.27
2017-12-29T20:58:32.163Z,8.20
2017-12-29T21:01:00.419Z,6.47
2017-12-29T21:03:27.895Z,6.90
2017-12-29T21:05:55.393Z,8.03
2017-12-29T21:08:23.637Z,8.30
2017-12-29T21:10:51.143Z,8.00
2017-12-29T21:13:18.613Z,8.60
2017-12-29T21:15:46.885Z,10.07
2017-12-29T21:18:14.363Z,10.00
2017-12-29T21:20:41.847Z,11.27
2017-12-29T21:23:10.114Z,10.70
2017-12-29T21:25:37.591Z,11.10
2017-12-29T21:28:05.095Z,10.93
2017-12-29T21:30:32.575Z,12.50
2017-12-29T21:33:00.092Z,11.47
2017-12-29T21:35:27.570Z,12.20
2017-12-29T21:37:55.071Z,11.40
2017-12-29T21:40:22.560Z,13.57
2017-12-29T21:42:50.067Z,12.27
2017-12-29T21:45:17.565Z,13.10
2017-12-29T21:47:45.075Z,12.20
2017-12-29T21:50:12.555Z,12.60
2017-12-29T21:52:40.054Z,12.60
2017-12-29T21:55:07.535Z,14.20
2017-12-29T21:57:35.031Z,15.37
2017-12-29T22:00:02.510Z,13.27
2017-12-29T22:02:30.021Z,13.30
2017-12-29T22:04:57.503Z,15.50
2017-12-29T22:07:25.012Z,14.40
2017-12-29T22:09:52.500Z,14.33
2017-12-29T22:12:20.000Z,13.80
2017-12-29T22:14:47.483Z,13.90
2017-12-29T22:17:14.991Z,14.03
2017-12-29T22:19:42.480Z,13.87
2017-12-29T22:22:09.978Z,14.30
2017-12-29T22:24:37.480Z,13.47
2017-12-29T22:27:05.732Z,13.60
2017-12-29T22:29:33.230Z,13.90
2017-12-29T22:32:00.716Z,13.80
2017-12-29T22:34:29.008Z,13.60
2017-12-29T22:36:57.259Z,13.30
2017-12-29T22:39:24.751Z,13.20
2017-12-29T22:41:52.234Z,12.80
2017-12-29T22:44:19.726Z,12.67
2017-12-29T22:46:47.223Z,15.90
2017-12-29T22:49:14.725Z,14.63
2017-12-29T22:51:42.217Z,12.60
2017-12-29T22:54:10.487Z,12.00
2017-12-29T22:56:37.965Z,10.70
2017-12-29T22:59:06.238Z,11.80
2017-12-29T23:01:33.715Z,10.23
2017-12-29T23:04:01.225Z,11.30
2017-12-29T23:06:28.723Z,11.50
2017-12-29T23:08:56.214Z,9.37
2017-12-29T23:11:23.706Z,11.47
2017-12-29T23:13:51.979Z,10.60
2017-12-29T23:16:19.458Z,10.80
2017-12-29T23:18:47.727Z,9.23
2017-12-29T23:21:15.204Z,8.30
2017-12-29T23:23:42.684Z,7.80
2017-12-29T23:26:10.945Z,7.70
2017-12-29T23:28:38.423Z,6.90
2017-12-29T23:31:05.919Z,7.17
2017-12-29T23:33:34.158Z,6.63
2017-12-29T23:36:01.645Z,6.87
2017-12-29T23:38:29.118Z,5.03
2017-12-29T23:40:56.652Z,5.47
2017-12-29T23:43:24.108Z,5.40
2017-12-29T23:45:51.606Z,5.30
2017-12-29T23:48:19.080Z,5.80
2017-12-29T23:50:46.579Z,5.03
2017-12-29T23:53:14.059Z,6.60
2017-12-29T23:55:42.315Z,5.67
2017-12-29T23:58:09.791Z,4.50
